sensor_id;sensor_type;location;lat;lon;timestamp;P1;durP1;ratioP1;P2;durP2;ratioP2
53939;SDS011;39850;43.324;21.916;2023-09-12T00:04:00;10.0;;;8.0;;
53939;SDS011;39850;43.324;21.916;2023-09-12T00:08:36;10.0;;;8.0;;
53939;SDS011;39850;43.324;21.916;2023-09-12T00:13:13;9.0;;;8.0;;
53939;SDS011;39850;43.324;21.916;2023-09-12T00:17:49;9.0;;;8.0;;
53939;SDS011;39850;43.324;21.916;2023-09-12T00:22:25;9.0;;;8.0;;
53939;SDS011;39850;43.324;21.916;2023-09-12T00:27:03;9.0;;;8.0;;
53939;SDS011;39850;43.324;21.916;2023-09-12T00:31:40;9.0;;;8.0;;
53939;SDS011;39850;43.324;21.916;2023-09-12T00:36:16;9.0;;;8.0;;
53939;SDS011;39850;43.324;21.916;2023-09-12T00:40:53;9.0;;;8.0;;
53939;SDS011;39850;43.324;21.916;2023-09-12T01:13:21;10.0;;;8.0;;
53939;SDS011;39850;43.324;21.916;2023-09-12T01:17:58;10.0;;;8.0;;
53939;SDS011;39850;43.324;21.916;2023-09-12T01:23:53;10.0;;;8.0;;
53939;SDS011;39850;43.324;21.916;2023-09-12T01:28:54;10.0;;;8.0;;
53939;SDS011;39850;43.324;21.916;2023-09-12T01:33:34;9.0;;;8.0;;
53939;SDS011;39850;43.324;21.916;2023-09-12T01:38:11;9.0;;;8.0;;
53939;SDS011;39850;43.324;21.916;2023-09-12T01:42:58;9.0;;;8.0;;
53939;SDS011;39850;43.324;21.916;2023-09-12T01:47:43;9.0;;;8.0;;
53939;SDS011;39850;43.324;21.916;2023-09-12T01:52:27;9.0;;;8.0;;
53939;SDS011;39850;43.324;21.916;2023-09-12T01:57:09;9.0;;;8.0;;
53939;SDS011;39850;43.324;21.916;2023-09-12T02:01:47;9.0;;;8.0;;
53939;SDS011;39850;43.324;21.916;2023-09-12T02:34:05;9.0;;;8.0;;
53939;SDS011;39850;43.324;21.916;2023-09-12T02:38:41;9.0;;;8.0;;
53939;SDS011;39850;43.324;21.916;2023-09-12T02:43:18;10.0;;;8.0;;
53939;SDS011;39850;43.324;21.916;2023-09-12T02:47:54;10.0;;;8.0;;
53939;SDS011;39850;43.324;21.916;2023-09-12T02:52:31;10.0;;;8.0;;
53939;SDS011;39850;43.324;21.916;2023-09-12T02:57:07;9.0;;;8.0;;
53939;SDS011;39850;43.324;21.916;2023-09-12T03:01:44;9.0;;;8.0;;
53939;SDS011;39850;43.324;21.916;2023-09-12T03:06:21;10.0;;;8.0;;
53939;SDS011;39850;43.324;21.916;2023-09-12T03:10:58;10.0;;;8.0;;
53939;SDS011;39850;43.324;21.916;2023-09-12T03:15:37;9.0;;;8.0;;
53939;SDS011;39850;43.324;21.916;2023-09-12T03:20:14;9.0;;;8.0;;
53939;SDS011;39850;43.324;21.916;2023-09-12T03:57:07;10.0;;;8.0;;
53939;SDS011;39850;43.324;21.916;2023-09-12T04:01:44;10.0;;;8.0;;
53939;SDS011;39850;43.324;21.916;2023-09-12T04:06:20;10.0;;;8.0;;
53939;SDS011;39850;43.324;21.916;2023-09-12T04:10:57;10.0;;;8.0;;
53939;SDS011;39850;43.324;21.916;2023-09-12T04:15:34;10.0;;;8.0;;
53939;SDS011;39850;43.324;21.916;2023-09-12T04:20:11;10.0;;;8.0;;
53939;SDS011;39850;43.324;21.916;2023-09-12T04:24:48;10.0;;;8.0;;
53939;SDS011;39850;43.324;21.916;2023-09-12T04:29:25;10.0;;;8.0;;
53939;SDS011;39850;43.324;21.916;2023-09-12T04:34:02;10.0;;;8.0;;
53939;SDS011;39850;43.324;21.916;2023-09-12T04:38:38;10.0;;;8.0;;
53939;SDS011;39850;43.324;21.916;2023-09-12T04:43:15;10.0;;;8.0;;
53939;SDS011;39850;43.324;21.916;2023-09-12T05:15:33;10.0;;;8.0;;
53939;SDS011;39850;43.324;21.916;2023-09-12T05:20:11;10.0;;;8.0;;
53939;SDS011;39850;43.324;21.916;2023-09-12T05:24:48;10.0;;;8.0;;
53939;SDS011;39850;43.324;21.916;2023-09-12T05:29:24;10.0;;;8.0;;
53939;SDS011;39850;43.324;21.916;2023-09-12T05:34:00;10.0;;;8.0;;
53939;SDS011;39850;43.324;21.916;2023-09-12T05:38:37;10.0;;;8.0;;
53939;SDS011;39850;43.324;21.916;2023-09-12T05:43:13;10.0;;;8.0;;
53939;SDS011;39850;43.324;21.916;2023-09-12T05:47:50;10.0;;;8.0;;
53939;SDS011;39850;43.324;21.916;2023-09-12T05:52:26;10.0;;;8.0;;
53939;SDS011;39850;43.324;21.916;2023-09-12T05:57:04;11.0;;;8.0;;
53939;SDS011;39850;43.324;21.916;2023-09-12T06:01:41;11.0;;;8.0;;
53939;SDS011;39850;43.324;21.916;2023-09-12T06:34:01;13.0;;;10.0;;
53939;SDS011;39850;43.324;21.916;2023-09-12T06:38:37;13.0;;;10.0;;
53939;SDS011;39850;43.324;21.916;2023-09-12T06:43:15;13.0;;;10.0;;
53939;SDS011;39850;43.324;21.916;2023-09-12T06:47:51;13.0;;;10.0;;
53939;SDS011;39850;43.324;21.916;2023-09-12T06:52:28;13.0;;;10.0;;
53939;SDS011;39850;43.324;21.916;2023-09-12T06:57:05;13.0;;;10.0;;
53939;SDS011;39850;43.324;21.916;2023-09-12T07:01:42;13.0;;;10.0;;
53939;SDS011;39850;43.324;21.916;2023-09-12T07:06:18;14.0;;;10.0;;
53939;SDS011;39850;43.324;21.916;2023-09-12T07:10:56;14.0;;;10.0;;
53939;SDS011;39850;43.324;21.916;2023-09-12T07:15:36;16.0;;;11.0;;
53939;SDS011;39850;43.324;21.916;2023-09-12T07:20:13;16.0;;;11.0;;
53939;SDS011;39850;43.324;21.916;2023-09-12T07:57:06;13.0;;;10.0;;
53939;SDS011;39850;43.324;21.916;2023-09-12T08:01:42;13.0;;;10.0;;
53939;SDS011;39850;43.324;21.916;2023-09-12T08:06:18;13.0;;;10.0;;
53939;SDS011;39850;43.324;21.916;2023-09-12T08:10:55;13.0;;;10.0;;
53939;SDS011;39850;43.324;21.916;2023-09-12T08:15:31;13.0;;;9.0;;
53939;SDS011;39850;43.324;21.916;2023-09-12T08:20:10;13.0;;;9.0;;
53939;SDS011;39850;43.324;21.916;2023-09-12T08:24:47;12.0;;;9.0;;
53939;SDS011;39850;43.324;21.916;2023-09-12T08:29:23;12.0;;;9.0;;
53939;SDS011;39850;43.324;21.916;2023-09-12T08:34:00;12.0;;;9.0;;
53939;SDS011;39850;43.324;21.916;2023-09-12T08:38:36;11.0;;;9.0;;
53939;SDS011;39850;43.324;21.916;2023-09-12T08:43:13;11.0;;;9.0;;
53939;SDS011;39850;43.324;21.916;2023-09-12T09:15:46;18.0;;;17.0;;
53939;SDS011;39850;43.324;21.916;2023-09-12T09:20:34;18.0;;;17.0;;
53939;SDS011;39850;43.324;21.916;2023-09-12T09:25:13;20.0;;;19.0;;
53939;SDS011;39850;43.324;21.916;2023-09-12T09:29:50;20.0;;;19.0;;
53939;SDS011;39850;43.324;21.916;2023-09-12T09:34:28;18.0;;;17.0;;
53939;SDS011;39850;43.324;21.916;2023-09-12T09:39:07;18.0;;;17.0;;
53939;SDS011;39850;43.324;21.916;2023-09-12T09:43:46;18.0;;;17.0;;
53939;SDS011;39850;43.324;21.916;2023-09-12T09:48:27;16.0;;;15.0;;
53939;SDS011;39850;43.324;21.916;2023-09-12T09:53:05;16.0;;;15.0;;
53939;SDS011;39850;43.324;21.916;2023-09-12T09:57:42;10.0;;;9.0;;
53939;SDS011;39850;43.324;21.916;2023-09-12T10:02:27;10.0;;;9.0;;
53939;SDS011;39850;43.324;21.916;2023-09-12T10:35:41;10.0;;;8.0;;
53939;SDS011;39850;43.324;21.916;2023-09-12T10:40:21;10.0;;;8.0;;
53939;SDS011;39850;43.324;21.916;2023-09-12T10:45:06;10.0;;;8.0;;
53939;SDS011;39850;43.324;21.916;2023-09-12T10:49:45;10.0;;;8.0;;
53939;SDS011;39850;43.324;21.916;2023-09-12T10:54:38;10.0;;;8.0;;
53939;SDS011;39850;43.324;21.916;2023-09-12T10:59:15;10.0;;;8.0;;
53939;SDS011;39850;43.324;21.916;2023-09-12T11:03:52;10.0;;;8.0;;
53939;SDS011;39850;43.324;21.916;2023-09-12T11:08:28;10.0;;;8.0;;
53939;SDS011;39850;43.324;21.916;2023-09-12T11:13:05;10.0;;;8.0;;
53939;SDS011;39850;43.324;21.916;2023-09-12T11:17:45;10.0;;;7.0;;
53939;SDS011;39850;43.324;21.916;2023-09-12T11:22:31;10.0;;;7.0;;
53939;SDS011;39850;43.324;21.916;2023-09-12T11:55:49;10.0;;;8.0;;
53939;SDS011;39850;43.324;21.916;2023-09-12T12:00:29;10.0;;;8.0;;
53939;SDS011;39850;43.324;21.916;2023-09-12T12:05:13;12.0;;;10.0;;
53939;SDS011;39850;43.324;21.916;2023-09-12T12:09:51;12.0;;;10.0;;
53939;SDS011;39850;43.324;21.916;2023-09-12T12:14:28;12.0;;;10.0;;
53939;SDS011;39850;43.324;21.916;2023-09-12T12:19:11;12.0;;;10.0;;
53939;SDS011;39850;43.324;21.916;2023-09-12T12:24:01;12.0;;;10.0;;
53939;SDS011;39850;43.324;21.916;2023-09-12T12:28:41;12.0;;;10.0;;
53939;SDS011;39850;43.324;21.916;2023-09-12T12:33:17;12.0;;;10.0;;
53939;SDS011;39850;43.324;21.916;2023-09-12T12:37:57;12.0;;;10.0;;
53939;SDS011;39850;43.324;21.916;2023-09-12T12:42:41;12.0;;;10.0;;
53939;SDS011;39850;43.324;21.916;2023-09-12T13:19:46;10.0;;;7.0;;
53939;SDS011;39850;43.324;21.916;2023-09-12T13:24:23;10.0;;;7.0;;
53939;SDS011;39850;43.324;21.916;2023-09-12T13:28:59;10.0;;;7.0;;
53939;SDS011;39850;43.324;21.916;2023-09-12T13:33:35;10.0;;;7.0;;
53939;SDS011;39850;43.324;21.916;2023-09-12T13:38:12;9.0;;;7.0;;
53939;SDS011;39850;43.324;21.916;2023-09-12T13:42:48;9.0;;;7.0;;
53939;SDS011;39850;43.324;21.916;2023-09-12T13:47:25;9.0;;;7.0;;
53939;SDS011;39850;43.324;21.916;2023-09-12T13:52:01;9.0;;;7.0;;
53939;SDS011;39850;43.324;21.916;2023-09-12T13:56:38;9.0;;;7.0;;
53939;SDS011;39850;43.324;21.916;2023-09-12T14:01:18;9.0;;;7.0;;
53939;SDS011;39850;43.324;21.916;2023-09-12T14:38:13;10.0;;;8.0;;
53939;SDS011;39850;43.324;21.916;2023-09-12T14:42:49;10.0;;;8.0;;
53939;SDS011;39850;43.324;21.916;2023-09-12T14:47:26;10.0;;;8.0;;
53939;SDS011;39850;43.324;21.916;2023-09-12T14:52:05;10.0;;;8.0;;
53939;SDS011;39850;43.324;21.916;2023-09-12T14:56:42;10.0;;;8.0;;
53939;SDS011;39850;43.324;21.916;2023-09-12T15:01:19;10.0;;;8.0;;
53939;SDS011;39850;43.324;21.916;2023-09-12T15:05:56;10.0;;;8.0;;
53939;SDS011;39850;43.324;21.916;2023-09-12T15:10:33;10.0;;;8.0;;
53939;SDS011;39850;43.324;21.916;2023-09-12T15:15:12;10.0;;;8.0;;
53939;SDS011;39850;43.324;21.916;2023-09-12T15:19:50;11.0;;;8.0;;
53939;SDS011;39850;43.324;21.916;2023-09-12T15:24:26;11.0;;;8.0;;
53939;SDS011;39850;43.324;21.916;2023-09-12T15:56:43;9.0;;;7.0;;
53939;SDS011;39850;43.324;21.916;2023-09-12T16:01:19;9.0;;;7.0;;
53939;SDS011;39850;43.324;21.916;2023-09-12T16:05:56;10.0;;;7.0;;
53939;SDS011;39850;43.324;21.916;2023-09-12T16:10:33;10.0;;;7.0;;
53939;SDS011;39850;43.324;21.916;2023-09-12T16:15:10;10.0;;;7.0;;
53939;SDS011;39850;43.324;21.916;2023-09-12T16:19:46;10.0;;;7.0;;
53939;SDS011;39850;43.324;21.916;2023-09-12T16:24:23;10.0;;;7.0;;
53939;SDS011;39850;43.324;21.916;2023-09-12T16:28:59;10.0;;;8.0;;
53939;SDS011;39850;43.324;21.916;2023-09-12T16:33:36;10.0;;;8.0;;
53939;SDS011;39850;43.324;21.916;2023-09-12T16:38:13;10.0;;;8.0;;
53939;SDS011;39850;43.324;21.916;2023-09-12T16:42:49;10.0;;;8.0;;
53939;SDS011;39850;43.324;21.916;2023-09-12T17:19:47;16.0;;;12.0;;
53939;SDS011;39850;43.324;21.916;2023-09-12T17:24:24;16.0;;;12.0;;
53939;SDS011;39850;43.324;21.916;2023-09-12T17:29:00;16.0;;;12.0;;
53939;SDS011;39850;43.324;21.916;2023-09-12T17:33:37;16.0;;;12.0;;
53939;SDS011;39850;43.324;21.916;2023-09-12T17:38:14;17.0;;;13.0;;
53939;SDS011;39850;43.324;21.916;2023-09-12T17:42:51;17.0;;;13.0;;
53939;SDS011;39850;43.324;21.916;2023-09-12T17:47:27;20.0;;;14.0;;
53939;SDS011;39850;43.324;21.916;2023-09-12T17:52:04;20.0;;;14.0;;
53939;SDS011;39850;43.324;21.916;2023-09-12T17:56:41;22.0;;;15.0;;
53939;SDS011;39850;43.324;21.916;2023-09-12T18:01:18;22.0;;;15.0;;
53939;SDS011;39850;43.324;21.916;2023-09-12T18:05:55;22.0;;;15.0;;
53939;SDS011;39850;43.324;21.916;2023-09-12T18:38:20;10.0;;;8.0;;
53939;SDS011;39850;43.324;21.916;2023-09-12T18:42:56;10.0;;;8.0;;
53939;SDS011;39850;43.324;21.916;2023-09-12T18:47:32;10.0;;;8.0;;
53939;SDS011;39850;43.324;21.916;2023-09-12T18:52:09;10.0;;;8.0;;
53939;SDS011;39850;43.324;21.916;2023-09-12T18:56:49;10.0;;;8.0;;
53939;SDS011;39850;43.324;21.916;2023-09-12T19:01:26;10.0;;;8.0;;
53939;SDS011;39850;43.324;21.916;2023-09-12T19:06:03;10.0;;;8.0;;
53939;SDS011;39850;43.324;21.916;2023-09-12T19:10:40;11.0;;;8.0;;
53939;SDS011;39850;43.324;21.916;2023-09-12T19:15:17;11.0;;;8.0;;
53939;SDS011;39850;43.324;21.916;2023-09-12T19:19:53;11.0;;;8.0;;
53939;SDS011;39850;43.324;21.916;2023-09-12T19:24:29;11.0;;;8.0;;
53939;SDS011;39850;43.324;21.916;2023-09-12T19:56:46;12.0;;;9.0;;
53939;SDS011;39850;43.324;21.916;2023-09-12T20:01:22;12.0;;;9.0;;
53939;SDS011;39850;43.324;21.916;2023-09-12T20:05:59;12.0;;;9.0;;
53939;SDS011;39850;43.324;21.916;2023-09-12T20:10:37;12.0;;;8.0;;
53939;SDS011;39850;43.324;21.916;2023-09-12T20:15:14;12.0;;;8.0;;
53939;SDS011;39850;43.324;21.916;2023-09-12T20:19:51;11.0;;;8.0;;
53939;SDS011;39850;43.324;21.916;2023-09-12T20:24:28;11.0;;;8.0;;
53939;SDS011;39850;43.324;21.916;2023-09-12T20:29:05;10.0;;;8.0;;
53939;SDS011;39850;43.324;21.916;2023-09-12T20:33:41;10.0;;;8.0;;
53939;SDS011;39850;43.324;21.916;2023-09-12T20:38:19;10.0;;;8.0;;
53939;SDS011;39850;43.324;21.916;2023-09-12T20:42:56;10.0;;;8.0;;
53939;SDS011;39850;43.324;21.916;2023-09-12T21:19:53;10.0;;;9.0;;
53939;SDS011;39850;43.324;21.916;2023-09-12T21:24:29;10.0;;;9.0;;
53939;SDS011;39850;43.324;21.916;2023-09-12T21:29:06;11.0;;;9.0;;
53939;SDS011;39850;43.324;21.916;2023-09-12T21:33:43;11.0;;;9.0;;
53939;SDS011;39850;43.324;21.916;2023-09-12T21:38:20;12.0;;;9.0;;
53939;SDS011;39850;43.324;21.916;2023-09-12T21:42:56;12.0;;;9.0;;
53939;SDS011;39850;43.324;21.916;2023-09-12T21:47:38;16.0;;;14.0;;
53939;SDS011;39850;43.324;21.916;2023-09-12T21:52:15;16.0;;;14.0;;
53939;SDS011;39850;43.324;21.916;2023-09-12T21:56:51;20.0;;;19.0;;
53939;SDS011;39850;43.324;21.916;2023-09-12T22:01:28;20.0;;;19.0;;
53939;SDS011;39850;43.324;21.916;2023-09-12T22:06:06;20.0;;;19.0;;
53939;SDS011;39850;43.324;21.916;2023-09-12T22:38:20;12.0;;;10.0;;
53939;SDS011;39850;43.324;21.916;2023-09-12T22:42:57;12.0;;;10.0;;
53939;SDS011;39850;43.324;21.916;2023-09-12T22:47:33;12.0;;;10.0;;
53939;SDS011;39850;43.324;21.916;2023-09-12T22:52:10;12.0;;;10.0;;
53939;SDS011;39850;43.324;21.916;2023-09-12T22:56:47;12.0;;;10.0;;
53939;SDS011;39850;43.324;21.916;2023-09-12T23:01:24;12.0;;;10.0;;
53939;SDS011;39850;43.324;21.916;2023-09-12T23:06:03;12.0;;;10.0;;
53939;SDS011;39850;43.324;21.916;2023-09-12T23:10:40;11.0;;;9.0;;
53939;SDS011;39850;43.324;21.916;2023-09-12T23:15:18;11.0;;;9.0;;
53939;SDS011;39850;43.324;21.916;2023-09-12T23:19:54;11.0;;;9.0;;
53939;SDS011;39850;43.324;21.916;2023-09-12T23:24:31;11.0;;;9.0;;
